Time;durP1;ratioP1;P1;durP2;ratioP2;P2;SDS_P1;SDS_P2;PMS_P1;PMS_P2;Temp;Humidity;BMP_temperature;BMP_pressure;BME280_temperature;BME280_humidity;BME280_pressure;Samples;Min_cycle;Max_cycle;Signal;HPM_P1;HPM_P2
2024/04/11 00:01:13;;;;;;;11.70;8.60;;;;;;;8.18;100.00;101824.91;180275;1260;43946;-65
2024/04/11 00:05:28;;;;;;;11.60;8.40;;;;;;;8.18;100.00;101825.46;179835;1263;58081;-65
2024/04/11 00:09:32;;;;;;;11.10;7.90;;;;;;;8.18;100.00;101821.05;180018;1259;44730;-64
2024/04/11 00:13:35;;;;;;;17.30;7.60;;;;;;;8.15;100.00;101818.52;180038;1259;44445;-65
2024/04/11 00:18:07;;;;;;;12.80;8.10;;;;;;;8.11;100.00;101818.00;179947;1259;45882;-65
2024/04/11 00:22:13;;;;;;;13.40;8.10;;;;;;;8.08;100.00;101818.65;180088;1261;46086;-65
2024/04/11 00:26:17;;;;;;;12.60;9.70;;;;;;;8.06;100.00;101818.23;180264;1259;58577;-64
2024/04/11 00:30:20;;;;;;;10.70;7.70;;;;;;;8.01;100.00;101822.15;180047;1259;43760;-65
2024/04/11 00:34:31;;;;;;;13.60;7.60;;;;;;;7.96;100.00;101819.18;180135;1259;45950;-65
2024/04/11 00:38:36;;;;;;;14.10;7.90;;;;;;;7.84;100.00;101818.00;179967;1259;45645;-65
2024/04/11 00:42:40;;;;;;;10.50;7.60;;;;;;;7.75;100.00;101818.38;180162;1259;43704;-66
2024/04/11 00:46:54;;;;;;;10.60;8.10;;;;;;;7.70;100.00;101818.98;179925;1260;58407;-64
2024/04/11 00:50:58;;;;;;;11.20;8.90;;;;;;;7.68;100.00;101813.76;180098;1260;43866;-65
2024/04/11 00:55:12;;;;;;;11.10;8.30;;;;;;;7.64;100.00;101811.46;179974;1260;44094;-65
2024/04/11 00:59:16;;;;;;;16.00;9.30;;;;;;;7.62;100.00;101820.75;179976;1259;45016;-65
2024/04/11 01:03:19;;;;;;;17.10;10.80;;;;;;;7.56;100.00;101814.84;180200;1260;44659;-65
2024/04/11 01:07:28;;;;;;;9.80;7.70;;;;;;;7.48;100.00;101810.23;180057;1259;58421;-65
2024/04/11 01:11:32;;;;;;;10.50;8.30;;;;;;;7.41;100.00;101813.91;179943;1260;45004;-67
2024/04/11 01:15:40;;;;;;;11.80;7.90;;;;;;;7.35;100.00;101813.44;179828;1260;45987;-65
2024/04/11 01:19:44;;;;;;;12.10;6.60;;;;;;;7.28;100.00;101814.99;180234;1259;43648;-65
2024/04/11 01:23:48;;;;;;;8.90;8.00;;;;;;;7.21;100.00;101813.52;179963;1260;45995;-64
2024/04/11 01:27:55;;;;;;;8.70;6.80;;;;;;;7.13;100.00;101817.55;180085;1260;60735;-65
2024/04/11 01:31:59;;;;;;;9.40;5.60;;;;;;;7.04;100.00;101821.49;180087;1259;45266;-64
2024/04/11 01:36:08;;;;;;;9.30;6.50;;;;;;;6.92;100.00;101820.39;179950;1260;45975;-64
2024/04/11 01:40:16;;;;;;;9.40;6.60;;;;;;;6.83;100.00;101818.98;180080;1259;45897;-65
2024/04/11 01:44:21;;;;;;;6.50;5.60;;;;;;;6.77;100.00;101820.46;180169;1259;46020;-65
2024/04/11 01:48:26;;;;;;;7.90;5.60;;;;;;;6.69;100.00;101819.02;180103;1260;58959;-65
2024/04/11 01:52:33;;;;;;;10.80;7.40;;;;;;;6.58;100.00;101823.35;180030;1260;46379;-65
2024/04/11 01:56:37;;;;;;;15.50;8.70;;;;;;;6.53;100.00;101824.96;179848;1264;45969;-65
2024/04/11 02:00:43;;;;;;;12.00;7.30;;;;;;;6.49;100.00;101826.02;179717;1260;45364;-65
2024/04/11 02:04:54;;;;;;;7.60;6.10;;;;;;;6.45;100.00;101832.67;180135;1260;44536;-65
2024/04/11 02:08:57;;;;;;;14.30;6.40;;;;;;;6.43;100.00;101830.46;180094;1260;57761;-65
2024/04/11 02:13:00;;;;;;;9.30;7.50;;;;;;;6.41;100.00;101830.54;179925;1260;46020;-65
2024/04/11 02:17:07;;;;;;;10.10;7.30;;;;;;;6.36;100.00;101829.66;180046;1259;43965;-64
2024/04/11 02:21:10;;;;;;;10.10;8.80;;;;;;;6.31;100.00;101831.31;180010;1259;43776;-65
2024/04/11 02:25:14;;;;;;;8.50;7.50;;;;;;;6.30;100.00;101828.01;179982;1260;43826;-65
2024/04/11 02:29:21;;;;;;;9.10;7.90;;;;;;;6.32;100.00;101825.79;179829;1260;58995;-65
2024/04/11 02:33:29;;;;;;;9.80;6.20;;;;;;;6.37;100.00;101827.18;179971;1260;44785;-65
2024/04/11 02:37:34;;;;;;;12.30;6.50;;;;;;;6.36;100.00;101822.96;180064;1260;46049;-65
2024/04/11 02:41:39;;;;;;;10.50;8.80;;;;;;;6.34;100.00;101823.76;180131;1260;43795;-65
2024/04/11 02:45:49;;;;;;;13.40;8.30;;;;;;;6.34;100.00;101823.76;179963;1261;45198;-64
2024/04/11 02:49:56;;;;;;;10.70;6.50;;;;;;;6.32;100.00;101827.38;179921;1259;58422;-64
2024/04/11 02:54:05;;;;;;;12.00;7.90;;;;;;;6.31;100.00;101833.77;180026;1260;44135;-65
2024/04/11 02:58:09;;;;;;;10.00;7.60;;;;;;;6.27;100.00;101826.85;180141;1258;45991;-65
2024/04/11 03:02:39;;;;;;;13.20;7.50;;;;;;;6.24;100.00;101825.06;180025;1260;45930;-65
2024/04/11 03:06:43;;;;;;;14.30;9.00;;;;;;;6.19;100.00;101832.64;180165;1260;44630;-65
2024/04/11 03:10:47;;;;;;;9.10;6.70;;;;;;;6.18;100.00;101830.39;180092;1259;58455;-65
2024/04/11 03:14:50;;;;;;;25.40;9.30;;;;;;;6.14;100.00;101826.10;180210;1259;46064;-64
2024/04/11 03:19:12;;;;;;;22.00;7.30;;;;;;;6.03;100.00;101827.75;180199;1260;43601;-64
2024/04/11 03:23:14;;;;;;;15.20;7.70;;;;;;;5.94;100.00;101833.03;180182;1259;45931;-65
2024/04/11 03:27:17;;;;;;;15.00;7.60;;;;;;;5.89;100.00;101835.31;179979;1259;46125;-65
2024/04/11 03:31:21;;;;;;;12.50;7.20;;;;;;;5.89;100.00;101834.79;180197;1260;58444;-65
2024/04/11 03:35:32;;;;;;;11.30;8.20;;;;;;;5.86;100.00;101828.38;180033;1259;43722;-65
2024/04/11 03:39:38;;;;;;;16.10;8.30;;;;;;;5.85;100.00;101831.55;180179;1260;44708;-65
2024/04/11 03:44:11;;;;;;;16.00;7.00;;;;;;;5.80;100.00;101834.41;180088;1260;46099;-64
2024/04/11 03:48:15;;;;;;;12.30;6.10;;;;;;;5.66;100.00;101832.96;180080;1259;45109;-65
2024/04/11 03:52:20;;;;;;;14.20;6.90;;;;;;;5.50;100.00;101837.23;180503;1259;59022;-65
2024/04/11 03:56:27;;;;;;;10.80;7.40;;;;;;;5.46;100.00;101839.33;180226;1259;44886;-65
2024/04/11 04:00:36;;;;;;;10.30;5.50;;;;;;;5.42;100.00;101844.21;180106;1259;45113;-65
2024/04/11 04:04:39;;;;;;;8.40;5.40;;;;;;;5.32;100.00;101848.27;179975;1259;45826;-65
2024/04/11 04:08:48;;;;;;;14.00;7.50;;;;;;;5.33;100.00;101851.56;180035;1259;44825;-65
2024/04/11 04:13:20;;;;;;;11.80;8.10;;;;;;;5.35;100.00;101858.52;179942;1259;58818;-66
2024/04/11 04:17:27;;;;;;;9.30;5.70;;;;;;;5.36;100.00;101862.53;180025;1263;44780;-64
2024/04/11 04:21:31;;;;;;;8.30;6.20;;;;;;;5.36;100.00;101866.61;180173;1260;43685;-64
2024/04/11 04:25:38;;;;;;;8.00;5.30;;;;;;;5.38;100.00;101866.52;180083;1259;43705;-65
2024/04/11 04:29:44;;;;;;;8.20;5.10;;;;;;;5.42;100.00;101871.30;180026;1259;44564;-65
2024/04/11 04:33:52;;;;;;;7.90;6.60;;;;;;;5.48;100.00;101867.23;180114;1259;57997;-65
2024/04/11 04:37:56;;;;;;;10.10;6.20;;;;;;;5.53;100.00;101866.33;180079;1259;45931;-65
2024/04/11 04:42:02;;;;;;;26.00;8.10;;;;;;;5.70;100.00;101874.19;180024;1260;43605;-63
2024/04/11 04:46:06;;;;;;;14.40;6.20;;;;;;;5.97;100.00;101877.63;180041;1259;46154;-65
2024/04/11 04:50:09;;;;;;;15.80;5.40;;;;;;;6.30;100.00;101881.55;179950;1259;43918;-65
2024/04/11 04:54:16;;;;;;;12.20;8.10;;;;;;;6.81;100.00;101882.93;180210;1259;58371;-65
2024/04/11 04:58:20;;;;;;;16.40;7.10;;;;;;;7.42;100.00;101878.47;179961;1261;44036;-65
2024/04/11 05:02:26;;;;;;;11.70;6.80;;;;;;;8.00;100.00;101885.81;180074;1259;45129;-65
2024/04/11 05:06:32;;;;;;;13.50;6.00;;;;;;;8.45;100.00;101900.05;180124;1259;45970;-65
2024/04/11 05:10:40;;;;;;;13.70;6.60;;;;;;;8.88;100.00;101905.08;180146;1259;43792;-65
2024/04/11 05:14:45;;;;;;;7.70;5.70;;;;;;;9.47;100.00;101900.23;180118;1259;59389;-65
2024/04/11 05:18:49;;;;;;;9.20;6.40;;;;;;;9.98;100.00;101899.52;179898;1259;46138;-65
2024/04/11 05:22:56;;;;;;;6.50;5.30;;;;;;;10.52;100.00;101905.87;180039;1259;45975;-66
2024/04/11 05:27:01;;;;;;;18.10;7.20;;;;;;;10.97;99.93;101917.94;180073;1259;45979;-67
2024/04/11 05:31:05;;;;;;;9.10;6.30;;;;;;;11.38;94.48;101915.73;180070;1259;45014;-66
2024/04/11 05:35:09;;;;;;;8.00;6.10;;;;;;;11.76;88.41;101917.39;179803;1259;57942;-66
2024/04/11 05:39:20;;;;;;;11.30;5.90;;;;;;;12.02;89.37;101919.20;179930;1259;46112;-66
2024/04/11 05:43:23;;;;;;;6.20;5.50;;;;;;;12.49;87.10;101918.23;179864;1259;45347;-66
2024/04/11 05:47:46;;;;;;;9.50;6.10;;;;;;;12.43;86.91;101925.88;180107;1259;45974;-66
2024/04/11 05:51:50;;;;;;;7.40;5.50;;;;;;;12.62;86.77;101929.48;180025;1259;46083;-67
2024/04/11 05:55:56;;;;;;;10.40;6.00;;;;;;;12.85;85.86;101935.66;179900;1259;58957;-66
2024/04/11 05:59:59;;;;;;;8.80;5.90;;;;;;;12.82;86.58;101929.82;179934;1259;44791;-66
2024/04/11 06:04:05;;;;;;;14.70;5.30;;;;;;;12.68;87.05;101928.21;180053;1259;44661;-66
2024/04/11 06:08:10;;;;;;;16.80;4.90;;;;;;;12.50;86.43;101927.39;180025;1259;46134;-67
2024/04/11 06:12:13;;;;;;;7.90;5.50;;;;;;;12.81;87.47;101928.48;179965;1261;45975;-67
2024/04/11 06:16:43;;;;;;;7.60;5.50;;;;;;;13.17;86.10;101930.39;179953;1259;60553;-66
2024/04/11 06:20:49;;;;;;;7.00;5.00;;;;;;;13.42;83.81;101927.50;180079;1259;44324;-66
2024/04/11 06:24:52;;;;;;;9.00;5.40;;;;;;;13.69;84.15;101926.94;180016;1259;45949;-66
2024/04/11 06:28:57;;;;;;;9.80;6.70;;;;;;;13.97;84.00;101923.90;180217;1259;46032;-66
2024/04/11 06:33:02;;;;;;;9.10;6.00;;;;;;;14.07;83.61;101925.37;180012;1259;43642;-66
2024/04/11 06:37:11;;;;;;;6.90;4.80;;;;;;;14.20;83.92;101928.57;180032;1260;59696;-66
2024/04/11 06:41:22;;;;;;;9.80;5.60;;;;;;;14.38;82.78;101934.98;179973;1259;44777;-67
2024/04/11 06:45:31;;;;;;;7.60;4.80;;;;;;;14.56;79.75;101934.38;180049;1259;43677;-67
2024/04/11 06:49:35;;;;;;;8.80;4.80;;;;;;;14.72;79.36;101937.41;180165;1259;46058;-67
2024/04/11 06:53:45;;;;;;;8.30;4.30;;;;;;;14.69;81.26;101937.59;180205;1259;46022;-67
2024/04/11 06:58:03;;;;;;;7.80;5.80;;;;;;;14.78;82.78;101948.41;180292;1259;59203;-67
2024/04/11 07:02:07;;;;;;;7.90;6.00;;;;;;;14.77;81.72;101948.47;180278;1259;46090;-67
2024/04/11 07:06:16;;;;;;;7.70;5.20;;;;;;;14.76;83.52;101945.71;180358;1259;44273;-67
2024/04/11 07:10:24;;;;;;;7.20;6.10;;;;;;;14.82;84.68;101941.65;180268;1259;43739;-67
2024/04/11 07:14:28;;;;;;;8.40;6.20;;;;;;;14.96;83.42;101937.44;180272;1259;46030;-67
2024/04/11 07:18:44;;;;;;;9.00;6.40;;;;;;;15.03;82.78;101935.69;180253;1259;58223;-67
2024/04/11 07:22:49;;;;;;;8.60;6.60;;;;;;;15.08;83.51;101937.60;180019;1259;45937;-66
2024/04/11 07:27:11;;;;;;;10.10;6.10;;;;;;;14.89;82.85;101938.69;180098;1259;44212;-67
2024/04/11 07:31:15;;;;;;;8.90;5.80;;;;;;;14.69;82.97;101942.41;180092;1259;46106;-67
2024/04/11 07:35:20;;;;;;;12.60;5.60;;;;;;;14.68;81.07;101939.25;180256;1259;45905;-67
2024/04/11 07:39:23;;;;;;;11.80;6.30;;;;;;;14.96;82.75;101937.58;180187;1259;58806;-65
2024/04/11 07:44:35;;;;;;;14.30;7.30;;;;;;;15.27;82.58;101934.38;180266;1259;46031;-65
2024/04/11 07:48:47;;;;;;;8.20;5.90;;;;;;;15.72;81.04;101932.23;180336;1259;43551;-65
2024/04/11 07:53:16;;;;;;;10.60;6.70;;;;;;;16.00;78.52;101927.77;180203;1259;44915;-65
2024/04/11 07:57:22;;;;;;;7.80;5.00;;;;;;;16.28;77.79;101927.42;180392;1259;43766;-65
2024/04/11 08:01:30;;;;;;;2.90;2.50;;;;;;;16.35;76.13;101926.65;180221;1259;59970;-66
2024/04/11 08:05:35;;;;;;;6.90;3.90;;;;;;;16.43;75.33;101924.21;180170;1259;44535;-65
2024/04/11 08:09:44;;;;;;;3.90;3.00;;;;;;;16.58;73.91;101924.25;180334;1259;44882;-65
2024/04/11 08:13:52;;;;;;;5.20;3.40;;;;;;;16.82;73.93;101925.01;180352;1259;46020;-65
2024/04/11 08:17:57;;;;;;;4.90;4.00;;;;;;;16.86;71.58;101921.60;180180;1259;44915;-65
2024/04/11 08:22:06;;;;;;;4.20;3.10;;;;;;;17.02;72.19;101924.52;180152;1259;58115;-65
2024/04/11 08:26:13;;;;;;;;;;;;;;;17.12;69.75;101921.32;172746;1259;10141101;-65
2024/04/11 08:30:16;;;;;;;8.50;4.40;;;;;;;17.20;68.63;101930.36;180363;1263;57833;-65
2024/04/11 08:34:21;;;;;;;8.10;3.20;;;;;;;17.19;67.72;101931.14;180229;1259;46037;-65
2024/04/11 08:38:28;;;;;;;10.80;3.40;;;;;;;16.98;67.20;101931.08;180229;1259;45938;-65
2024/04/11 08:42:42;;;;;;;3.00;2.20;;;;;;;17.03;68.44;101931.60;180306;1259;43830;-65
2024/04/11 08:46:46;;;;;;;5.80;2.20;;;;;;;16.92;66.41;101936.91;180164;1259;46018;-65
2024/04/11 08:50:54;;;;;;;3.50;2.20;;;;;;;16.71;67.69;101933.42;180260;1258;58270;-65
2024/04/11 08:54:59;;;;;;;51.60;9.10;;;;;;;16.76;65.33;101929.48;180121;1259;43725;-65
2024/04/11 08:59:05;;;;;;;3.30;2.00;;;;;;;16.84;65.48;101930.63;180201;1259;43724;-65
2024/04/11 09:03:12;;;;;;;2.40;1.50;;;;;;;16.85;63.98;101929.09;180234;1259;45401;-63
2024/04/11 09:07:21;;;;;;;6.50;1.90;;;;;;;16.80;64.88;101929.48;180208;1259;44945;-63
2024/04/11 09:11:27;;;;;;;5.10;2.40;;;;;;;16.96;63.91;101928.91;180258;1259;57346;-65
2024/04/11 09:15:32;;;;;;;6.00;1.80;;;;;;;17.01;65.44;101930.11;180362;1259;44691;-65
2024/04/11 09:19:40;;;;;;;6.00;1.80;;;;;;;16.99;65.49;101925.77;180215;1259;43828;-66
2024/04/11 09:23:47;;;;;;;5.00;2.10;;;;;;;16.98;62.56;101926.80;180138;1262;43518;-65
2024/04/11 09:27:58;;;;;;;5.20;1.80;;;;;;;16.84;61.99;101928.58;180008;1259;46045;-65
2024/04/11 09:32:04;;;;;;;5.00;2.80;;;;;;;16.67;64.33;101925.89;180160;1259;58694;-66
2024/04/11 09:36:10;;;;;;;4.20;1.90;;;;;;;16.55;62.51;101920.38;180195;1259;46458;-65
2024/04/11 09:40:56;;;;;;;4.20;1.40;;;;;;;16.68;65.42;101920.27;180192;1259;44772;-65
2024/04/11 09:45:00;;;;;;;88.40;15.10;;;;;;;16.86;60.91;101915.73;180174;1259;45915;-65
2024/04/11 09:49:04;;;;;;;5.40;2.40;;;;;;;17.02;61.13;101912.45;180081;1259;43797;-66
2024/04/11 09:53:25;;;;;;;4.70;1.80;;;;;;;17.16;58.37;101906.15;180268;1259;57828;-66
2024/04/11 09:57:33;;;;;;;2.50;0.90;;;;;;;17.34;60.87;101896.18;180245;1259;43638;-66
2024/04/11 10:01:40;;;;;;;1.10;0.50;;;;;;;17.32;56.86;101893.65;180212;1260;43972;-66
2024/04/11 10:05:46;;;;;;;2.00;0.40;;;;;;;17.19;54.14;101895.79;180145;1261;46017;-62
2024/04/11 10:09:54;;;;;;;1.40;1.30;;;;;;;17.18;53.26;101894.70;180116;1261;46042;-62
2024/04/11 10:14:04;;;;;;;6.40;1.20;;;;;;;17.13;54.31;101892.06;180131;1259;58729;-63
2024/04/11 10:18:10;;;;;;;4.40;1.90;;;;;;;17.19;59.35;101893.66;180305;1259;43668;-62
2024/04/11 10:22:32;;;;;;;2.30;1.50;;;;;;;17.13;58.87;101890.77;180221;1259;43595;-67
2024/04/11 10:26:42;;;;;;;2.40;2.00;;;;;;;17.26;60.35;101885.39;180473;1259;43757;-66
2024/04/11 10:30:50;;;;;;;5.00;2.20;;;;;;;17.38;58.30;101883.64;180578;1259;43537;-65
2024/04/11 10:34:57;;;;;;;3.40;1.90;;;;;;;17.34;58.72;101878.27;180490;1259;58471;-66
2024/04/11 10:40:00;;;;;;;2.50;1.10;;;;;;;17.32;56.65;101871.82;180449;1259;45034;-66
2024/04/11 10:44:07;;;;;;;3.80;1.00;;;;;;;17.56;59.17;101874.09;180581;1259;43538;-66
2024/04/11 10:48:14;;;;;;;3.20;1.30;;;;;;;17.78;59.30;101865.88;180518;1259;45940;-66
2024/04/11 10:52:21;;;;;;;3.10;1.50;;;;;;;17.94;59.17;101867.86;180657;1259;43736;-66
2024/04/11 10:56:25;;;;;;;3.60;1.60;;;;;;;17.96;55.21;101861.80;180502;1259;58750;-65
2024/04/11 11:01:07;;;;;;;4.50;1.30;;;;;;;17.95;54.71;101864.21;180589;1259;43570;-66
2024/04/11 11:05:45;;;;;;;6.60;1.50;;;;;;;17.94;53.58;101859.41;180280;1259;45909;-63
2024/04/11 11:09:52;;;;;;;4.40;1.60;;;;;;;17.93;53.51;101856.89;180133;1259;45979;-63
2024/04/11 11:13:55;;;;;;;37.30;6.70;;;;;;;17.82;53.73;101852.77;180113;1259;44968;-60
2024/04/11 11:17:59;;;;;;;3.60;1.50;;;;;;;17.86;53.87;101851.91;180183;1259;58774;-62
2024/04/11 11:22:03;;;;;;;49.90;7.30;;;;;;;17.84;51.97;101850.42;180098;1259;43626;-62
2024/04/11 11:26:06;;;;;;;1.70;0.80;;;;;;;17.97;55.30;101844.66;180160;1259;45976;-63
2024/04/11 11:30:15;;;;;;;3.20;1.40;;;;;;;17.98;53.71;101842.98;180126;1259;46067;-61
2024/04/11 11:34:27;;;;;;;4.20;1.40;;;;;;;18.01;53.13;101843.79;180132;1259;44943;-62
2024/04/11 11:38:34;;;;;;;1.60;0.80;;;;;;;18.05;52.85;101841.27;180107;1259;58434;-61
2024/04/11 11:42:38;;;;;;;2.00;1.40;;;;;;;18.10;52.12;101838.16;180308;1259;46024;-61
2024/04/11 11:47:08;;;;;;;2.10;1.60;;;;;;;18.12;53.78;101829.89;180300;1259;43788;-62
2024/04/11 11:51:11;;;;;;;5.80;1.40;;;;;;;18.29;55.03;101825.20;180256;1259;44273;-62
2024/04/11 11:55:18;;;;;;;1.50;1.10;;;;;;;18.43;53.09;101813.30;180304;1259;45937;-61
2024/04/11 11:59:21;;;;;;;15.70;2.50;;;;;;;18.53;55.07;101817.60;180322;1259;59811;-62
2024/04/11 12:03:32;;;;;;;5.00;1.50;;;;;;;18.57;53.28;101811.36;180326;1259;45384;-62
2024/04/11 12:08:08;;;;;;;2.00;1.20;;;;;;;18.58;56.81;101806.92;180298;1259;46083;-61
2024/04/11 12:12:20;;;;;;;;;;;;;;;18.46;53.76;101804.90;180232;1258;43590;-62
2024/04/11 12:16:25;;;;;;;2.20;1.20;;;;;;;18.24;52.30;101801.15;180260;1259;43404;-62
2024/04/11 12:20:31;;;;;;;2.80;1.70;;;;;;;18.14;55.05;101797.61;180376;1259;58273;-62
2024/04/11 12:24:36;;;;;;;2.80;1.90;;;;;;;18.17;56.74;101799.15;180229;1259;43639;-63
2024/04/11 12:28:45;;;;;;;10.10;3.00;;;;;;;18.30;53.22;101792.56;180235;1259;45915;-62
2024/04/11 12:32:48;;;;;;;38.90;6.10;;;;;;;18.45;55.34;101785.11;180266;1259;43786;-62
2024/04/11 12:36:58;;;;;;;2.60;1.70;;;;;;;18.56;56.40;101781.41;180407;1259;44578;-62
2024/04/11 12:41:01;;;;;;;3.70;1.60;;;;;;;18.54;54.09;101778.88;180231;1259;57958;-63
2024/04/11 12:45:09;;;;;;;;;;;;;;;18.68;54.43;101773.54;180315;1259;46014;-62
2024/04/11 12:49:15;;;;;;;3.10;1.50;;;;;;;18.79;54.15;101764.02;180359;1259;44325;-62
2024/04/11 12:53:23;;;;;;;1.80;1.40;;;;;;;18.85;52.04;101766.03;180245;1259;45969;-62
2024/04/11 12:57:29;;;;;;;1.90;1.30;;;;;;;18.90;50.85;101768.74;180254;1259;46020;-62
2024/04/11 13:01:41;;;;;;;5.50;2.40;;;;;;;19.03;53.07;101765.93;180234;1259;57423;-61
2024/04/11 13:10:08;;;;;;;11.80;2.70;;;;;;;19.24;52.58;101756.77;180255;1259;46026;-62
2024/04/11 13:14:43;;;;;;;14.60;4.10;;;;;;;19.34;50.80;101753.35;180414;1259;45089;-66
2024/04/11 13:18:47;;;;;;;5.80;1.50;;;;;;;19.43;53.40;101749.96;180491;1258;45834;-66
2024/04/11 13:23:09;;;;;;;5.20;1.10;;;;;;;19.31;50.30;101743.37;180519;1259;58622;-66
2024/04/11 13:27:16;;;;;;;2.00;1.40;;;;;;;19.34;50.93;101741.52;180748;1259;43900;-65
2024/04/11 13:31:23;;;;;;;3.30;2.00;;;;;;;19.45;50.94;101737.17;180589;1259;46095;-67
2024/04/11 13:35:38;;;;;;;6.50;1.10;;;;;;;19.56;50.30;101734.27;180642;1258;46104;-66
2024/04/11 13:44:16;;;;;;;8.00;2.40;;;;;;;19.47;50.85;101725.42;180745;1259;58877;-68
2024/04/11 13:48:20;;;;;;;2.70;1.90;;;;;;;19.43;50.49;101719.95;180718;1259;43552;-67
2024/04/11 13:52:27;;;;;;;2.90;1.40;;;;;;;19.51;51.19;101715.34;180719;1259;43538;-67
2024/04/11 13:56:30;;;;;;;3.30;1.40;;;;;;;19.58;51.67;101711.61;180551;1259;43766;-66
2024/04/11 14:10:22;;;;;;;3.40;1.30;;;;;;;19.76;50.03;101703.40;180421;1259;45087;-66
2024/04/11 14:20:19;;;;;;;1.70;1.30;;;;;;;19.82;52.08;101696.52;180539;1259;43636;-67
2024/04/11 14:24:24;;;;;;;4.00;1.90;;;;;;;19.71;51.06;101692.78;180485;1259;43522;-66
2024/04/11 14:28:34;;;;;;;2.30;1.40;;;;;;;19.66;52.03;101687.30;180735;1259;58729;-67
2024/04/11 14:37:19;;;;;;;12.00;3.20;;;;;;;19.38;52.31;101686.23;180469;1259;45934;-67
2024/04/11 14:41:40;;;;;;;3.40;1.70;;;;;;;19.58;53.14;101679.38;180628;1259;43808;-67
2024/04/11 14:45:43;;;;;;;4.60;1.50;;;;;;;19.71;53.61;101678.48;180489;1259;44901;-68
2024/04/11 14:49:48;;;;;;;7.90;1.70;;;;;;;19.72;52.67;101677.91;180521;1259;58565;-66
2024/04/11 14:59:11;;;;;;;5.00;1.80;;;;;;;19.73;52.76;101677.93;180581;1260;45865;-66
2024/04/11 15:03:19;;;;;;;3.30;1.20;;;;;;;19.77;52.12;101676.13;180519;1259;45921;-67
2024/04/11 15:07:29;;;;;;;4.70;2.20;;;;;;;19.84;53.60;101671.48;180602;1259;43797;-66
2024/04/11 15:11:33;;;;;;;2.80;1.40;;;;;;;19.93;53.58;101665.92;180543;1259;57777;-67
2024/04/11 15:15:59;;;;;;;2.40;1.50;;;;;;;19.89;52.37;101666.75;180424;1259;45448;-67
2024/04/11 15:20:09;;;;;;;2.30;1.30;;;;;;;19.80;52.45;101662.30;180438;1259;46021;-67
2024/04/11 15:24:18;;;;;;;2.20;0.80;;;;;;;19.73;50.41;101653.67;180422;1260;43522;-67
2024/04/11 15:28:22;;;;;;;6.50;1.60;;;;;;;19.61;50.65;101656.98;180536;1259;45921;-67
2024/04/11 15:32:32;;;;;;;2.50;1.10;;;;;;;19.57;51.82;101660.59;180392;1259;58264;-67
2024/04/11 15:37:27;;;;;;;20.20;1.90;;;;;;;19.50;54.04;101655.77;180516;1259;44998;-67
2024/04/11 15:41:23;;;;;;;;;;;;;;;19.43;55.00;101653.16;180555;1259;44087;-67
2024/04/11 15:45:29;;;;;;;3.20;1.30;;;;;;;19.42;54.65;101649.35;180342;1259;45783;-67
2024/04/11 15:49:39;;;;;;;4.00;1.30;;;;;;;19.29;53.12;101649.50;180352;1259;43917;-67
2024/04/11 15:53:56;;;;;;;7.20;1.60;;;;;;;19.37;54.08;101642.64;180475;1259;58450;-67
2024/04/11 15:58:14;;;;;;;3.90;1.20;;;;;;;19.28;55.06;101640.83;180531;1259;45998;-67
2024/04/11 16:02:44;;;;;;;2.20;0.90;;;;;;;19.10;54.31;101637.48;180477;1259;43520;-65
2024/04/11 16:06:53;;;;;;;3.40;1.80;;;;;;;18.99;56.69;101638.30;180513;1259;45019;-67
2024/04/11 16:11:27;;;;;;;3.50;1.80;;;;;;;18.86;57.23;101637.52;180663;1259;43568;-67
2024/04/11 16:15:31;;;;;;;4.80;1.90;;;;;;;18.64;58.64;101639.08;180502;1259;58456;-66
2024/04/11 16:19:38;;;;;;;3.80;1.20;;;;;;;18.48;59.66;101638.44;180468;1259;43570;-67
2024/04/11 16:23:54;;;;;;;4.90;1.50;;;;;;;18.34;60.27;101636.64;180596;1259;43723;-67
2024/04/11 16:28:01;;;;;;;7.20;2.10;;;;;;;18.11;58.88;101639.84;180613;1259;43523;-67
2024/04/11 16:32:06;;;;;;;7.50;1.90;;;;;;;17.90;61.78;101640.89;180712;1259;43595;-67
2024/04/11 16:36:12;;;;;;;3.80;1.90;;;;;;;17.67;63.67;101644.55;180568;1259;59117;-67
2024/04/11 16:40:23;;;;;;;3.80;2.10;;;;;;;17.44;63.57;101642.86;180351;1259;45980;-67
2024/04/11 16:44:29;;;;;;;3.90;1.70;;;;;;;17.16;65.21;101642.13;180567;1259;43758;-67
2024/04/11 16:48:42;;;;;;;3.60;1.50;;;;;;;16.91;66.42;101638.48;180449;1259;43699;-67
2024/04/11 16:53:16;;;;;;;2.40;1.70;;;;;;;16.62;67.46;101640.70;180427;1260;43535;-67
2024/04/11 16:57:25;;;;;;;3.90;1.90;;;;;;;16.34;69.23;101641.95;180447;1259;58391;-67
2024/04/11 17:01:29;;;;;;;4.40;1.50;;;;;;;16.02;69.53;101644.98;180542;1259;45037;-67
2024/04/11 17:05:40;;;;;;;2.20;1.50;;;;;;;15.68;70.55;101650.02;180441;1260;43621;-67
2024/04/11 17:09:47;;;;;;;5.70;1.60;;;;;;;15.30;71.89;101651.86;180318;1259;45884;-67
2024/04/11 17:13:54;;;;;;;3.30;2.20;;;;;;;14.92;73.64;101656.61;180320;1259;43519;-67
2024/04/11 17:22:18;;;;;;;3.00;2.10;;;;;;;14.32;76.00;101663.98;180296;1260;45995;-67
2024/04/11 17:26:47;;;;;;;6.20;2.40;;;;;;;14.11;76.37;101672.35;180366;1259;44670;-65
2024/04/11 17:35:18;;;;;;;5.10;2.40;;;;;;;13.78;77.63;101680.98;180498;1259;44199;-64
2024/04/11 17:43:43;;;;;;;8.10;2.80;;;;;;;13.72;76.81;101687.32;180366;1259;43773;-64
2024/04/11 17:48:56;;;;;;;2.70;2.00;;;;;;;13.69;77.41;101688.79;180472;1259;43562;-64
2024/04/11 17:53:06;;;;;;;5.90;2.60;;;;;;;13.58;78.40;101688.35;180524;1259;43663;-64
2024/04/11 17:57:10;;;;;;;6.80;3.20;;;;;;;13.52;78.89;101696.06;180444;1259;43651;-66
2024/04/11 18:01:17;;;;;;;10.20;3.20;;;;;;;13.40;79.31;101705.90;180432;1259;59350;-65
2024/04/11 18:05:24;;;;;;;8.90;4.50;;;;;;;13.36;79.41;101711.98;180238;1259;45087;-63
2024/04/11 18:09:27;;;;;;;14.10;5.00;;;;;;;13.21;80.20;101704.80;180181;1263;43823;-63
2024/04/11 18:13:33;;;;;;;5.50;3.40;;;;;;;13.03;80.73;101708.14;180333;1259;44831;-64
2024/04/11 18:22:48;;;;;;;5.10;3.40;;;;;;;12.64;81.93;101720.95;180530;1259;58675;-63
2024/04/11 18:26:54;;;;;;;10.90;3.40;;;;;;;12.54;82.59;101722.00;180404;1259;46106;-63
2024/04/11 18:31:07;;;;;;;3.90;3.40;;;;;;;12.42;83.55;101724.39;180481;1259;44978;-63
2024/04/11 18:35:10;;;;;;;6.40;2.90;;;;;;;12.36;83.44;101732.58;180464;1258;43643;-63
2024/04/11 18:39:17;;;;;;;94.10;18.40;;;;;;;12.31;82.82;101729.05;180395;1259;43590;-64
2024/04/11 18:43:22;;;;;;;21.20;7.10;;;;;;;12.31;81.62;101731.84;180320;1259;57937;-64
2024/04/11 18:52:22;;;;;;;13.00;5.70;;;;;;;12.48;80.97;101734.30;180335;1259;45908;-64
2024/04/11 18:56:29;;;;;;;14.90;5.90;;;;;;;12.50;82.19;101736.53;180397;1263;45985;-64
2024/04/11 19:00:43;;;;;;;13.80;5.50;;;;;;;12.42;80.98;101740.56;180178;1261;45843;-64
2024/04/11 19:04:54;;;;;;;13.50;5.90;;;;;;;12.29;80.98;101745.33;180302;1260;57668;-65
2024/04/11 19:08:59;;;;;;;8.90;4.60;;;;;;;12.16;81.45;101751.02;180184;1260;45019;-65
2024/04/11 19:13:57;;;;;;;12.50;5.00;;;;;;;12.00;80.95;101753.77;180249;1259;46025;-65
2024/04/11 19:18:01;;;;;;;9.00;5.60;;;;;;;11.83;82.89;101750.92;180332;1260;46038;-64
2024/04/11 19:22:11;;;;;;;10.30;4.70;;;;;;;11.63;83.99;101755.17;180479;1260;43784;-64
2024/04/11 19:26:15;;;;;;;7.60;4.80;;;;;;;11.37;82.85;101756.48;180395;1260;59119;-64
2024/04/11 19:30:43;;;;;;;11.90;6.90;;;;;;;11.14;82.96;101754.65;180398;1258;44732;-64
2024/04/11 19:34:49;;;;;;;8.40;5.80;;;;;;;11.01;83.65;101755.78;180401;1260;43867;-64
2024/04/11 19:38:55;;;;;;;6.30;5.20;;;;;;;11.01;84.29;101755.40;180243;1260;46152;-64
2024/04/11 19:43:03;;;;;;;9.70;5.60;;;;;;;11.03;85.50;101759.95;180309;1259;43576;-64
2024/04/11 19:47:06;;;;;;;7.90;5.00;;;;;;;11.02;87.06;101757.70;180330;1260;58483;-65
2024/04/11 19:51:24;;;;;;;9.90;5.50;;;;;;;11.02;87.11;101759.30;180330;1259;43718;-64
2024/04/11 19:55:27;;;;;;;9.20;6.20;;;;;;;11.03;87.58;101758.86;180265;1259;43554;-65
2024/04/11 19:59:32;;;;;;;25.80;14.90;;;;;;;11.02;88.03;101756.09;180443;1262;43673;-64